createdAt,value
2022-08-02T00:02:40.737Z,5.32
2022-08-02T00:05:27.097Z,5.22
2022-08-02T00:08:13.116Z,4.95
2022-08-02T00:10:59.261Z,4.82
2022-08-02T00:13:45.519Z,4.53
2022-08-02T00:16:37.441Z,4.82
2022-08-02T00:22:10.356Z,5.30
2022-08-02T00:24:56.674Z,5.20
2022-08-02T00:27:42.657Z,4.95
2022-08-02T00:30:28.412Z,4.95
2022-08-02T00:33:14.826Z,4.90
2022-08-02T00:36:00.689Z,5.00
2022-08-02T00:38:48.074Z,4.78
2022-08-02T00:41:33.989Z,4.57
2022-08-02T00:44:21.250Z,4.35
2022-08-02T00:47:07.429Z,4.40
2022-08-02T00:49:53.358Z,4.45
2022-08-02T00:52:39.321Z,4.60
2022-08-02T00:55:31.283Z,4.93
2022-08-02T00:58:17.350Z,4.60
2022-08-02T01:01:03.754Z,4.75
2022-08-02T01:03:49.997Z,4.63
2022-08-02T01:06:37.366Z,4.78
2022-08-02T01:09:23.260Z,4.72
2022-08-02T01:12:09.802Z,4.38
2022-08-02T01:15:00.451Z,4.53
2022-08-02T01:17:51.209Z,4.45
2022-08-02T01:20:49.791Z,4.70
2022-08-02T01:23:57.928Z,4.78
2022-08-02T01:27:21.273Z,4.65
2022-08-02T01:30:08.610Z,4.13
2022-08-02T01:32:58.949Z,4.40
2022-08-02T01:35:50.885Z,4.70
2022-08-02T01:38:43.833Z,4.20
2022-08-02T01:41:30.813Z,4.82
2022-08-02T01:44:17.859Z,4.78
2022-08-02T01:47:19.854Z,3.85
2022-08-02T01:52:54.042Z,4.63
2022-08-02T01:55:57.055Z,4.60
2022-08-02T01:58:45.766Z,4.88
2022-08-02T02:01:33.395Z,4.40
2022-08-02T02:04:22.195Z,4.28
2022-08-02T02:07:08.689Z,5.15
2022-08-02T02:09:54.923Z,4.45
2022-08-02T02:12:43.151Z,4.30
2022-08-02T02:15:31.309Z,4.20
2022-08-02T02:18:23.773Z,4.25
2022-08-02T02:21:10.441Z,4.10
2022-08-02T02:23:56.637Z,4.00
2022-08-02T02:26:52.100Z,3.80
2022-08-02T02:29:43.301Z,3.70
2022-08-02T02:32:29.746Z,4.13
2022-08-02T02:35:16.750Z,4.25
2022-08-02T02:38:04.481Z,4.30
2022-08-02T02:40:50.628Z,3.75
2022-08-02T02:43:38.318Z,4.43
2022-08-02T02:46:26.267Z,3.78
2022-08-02T02:49:13.381Z,4.28
2022-08-02T02:51:59.614Z,4.20
2022-08-02T02:54:49.132Z,4.30
2022-08-02T02:57:37.218Z,4.55
2022-08-02T03:00:43.507Z,4.18
2022-08-02T03:03:30.132Z,4.43
2022-08-02T03:06:16.393Z,4.60
2022-08-02T03:09:02.202Z,4.28
2022-08-02T03:11:48.659Z,4.20
2022-08-02T03:14:35.047Z,4.05
2022-08-02T03:17:21.099Z,4.10
2022-08-02T03:20:10.043Z,3.95
2022-08-02T03:22:55.948Z,4.38
2022-08-02T03:25:41.829Z,4.43
2022-08-02T03:28:28.110Z,4.70
2022-08-02T03:31:14.096Z,4.72
2022-08-02T03:34:01.577Z,4.75
2022-08-02T03:36:49.347Z,4.30
2022-08-02T03:39:35.302Z,4.45
2022-08-02T03:42:21.616Z,4.40
2022-08-02T03:45:10.133Z,4.13
2022-08-02T03:47:58.749Z,3.72
2022-08-02T03:50:47.592Z,3.92
2022-08-02T03:53:34.183Z,4.05
2022-08-02T03:56:20.070Z,4.25
2022-08-02T03:59:11.414Z,6.40
2022-08-02T04:01:57.521Z,5.05
2022-08-02T04:04:43.521Z,5.45
2022-08-02T04:08:33.556Z,5.63
2022-08-02T04:10:55.931Z,5.22
2022-08-02T04:13:42.057Z,4.43
2022-08-02T04:16:33.923Z,4.10
2022-08-02T04:19:28.193Z,3.95
2022-08-02T04:22:24.573Z,3.95
2022-08-02T04:25:17.135Z,4.25
2022-08-02T04:28:16.658Z,4.15
2022-08-02T04:31:05.281Z,4.82
2022-08-02T04:33:51.179Z,3.88
2022-08-02T04:36:38.139Z,3.90
2022-08-02T04:39:24.735Z,3.50
2022-08-02T04:42:10.967Z,3.60
2022-08-02T04:44:58.076Z,3.75
2022-08-02T04:48:02.175Z,3.70
2022-08-02T04:50:50.482Z,3.67
2022-08-02T04:53:36.422Z,3.60
2022-08-02T04:56:22.246Z,3.78
2022-08-02T04:59:08.442Z,3.58
2022-08-02T05:01:54.613Z,3.60
2022-08-02T05:04:40.775Z,3.78
2022-08-02T05:07:26.802Z,3.50
2022-08-02T05:10:15.252Z,3.40
2022-08-02T05:13:01.184Z,3.50
2022-08-02T05:15:50.640Z,3.42
2022-08-02T05:18:36.802Z,3.90
2022-08-02T05:21:22.872Z,3.05
2022-08-02T05:24:09.764Z,3.20
2022-08-02T05:26:55.574Z,3.25
2022-08-02T05:29:41.655Z,3.30
2022-08-02T05:32:50.762Z,4.80
2022-08-02T05:35:36.914Z,3.70
2022-08-02T05:38:26.025Z,3.58
2022-08-02T05:41:12.476Z,3.38
2022-08-02T05:43:58.305Z,3.53
2022-08-02T05:46:44.182Z,3.58
2022-08-02T05:49:30.243Z,3.50
2022-08-02T05:52:18.418Z,3.45
2022-08-02T05:55:13.434Z,3.55
2022-08-02T05:58:26.911Z,2.90
2022-08-02T06:01:14.467Z,3.20
2022-08-02T06:04:01.142Z,2.95
2022-08-02T06:06:50.178Z,3.30
2022-08-02T06:09:36.272Z,3.20
2022-08-02T06:12:25.880Z,3.13
2022-08-02T06:15:15.075Z,3.10
2022-08-02T06:18:02.255Z,2.83
2022-08-02T06:20:50.432Z,2.80
2022-08-02T06:23:42.207Z,2.83
2022-08-02T06:26:44.972Z,3.20
2022-08-02T06:29:37.038Z,3.03
2022-08-02T06:32:26.879Z,3.53
2022-08-02T06:35:13.475Z,3.17
2022-08-02T06:38:03.182Z,3.00
2022-08-02T06:40:56.564Z,3.38
2022-08-02T06:44:27.390Z,2.83
2022-08-02T13:15:49.265Z,2.45
2022-08-02T13:18:19.469Z,1.50
2022-08-02T13:21:06.890Z,1.45
2022-08-02T13:23:54.693Z,1.10
2022-08-02T13:26:41.630Z,1.17
2022-08-02T13:29:27.740Z,1.30
2022-08-02T13:32:14.523Z,1.25
2022-08-02T13:35:01.288Z,1.50
2022-08-02T13:37:48.268Z,1.20
2022-08-02T13:40:49.232Z,1.05
2022-08-02T13:43:53.404Z,1.30
2022-08-02T13:46:45.499Z,1.30
2022-08-02T13:49:50.566Z,1.55
2022-08-02T13:52:37.960Z,1.27
2022-08-02T13:55:24.415Z,1.40
2022-08-02T13:58:10.664Z,1.10
2022-08-02T14:00:56.767Z,1.20
2022-08-02T14:04:07.497Z,1.20
2022-08-02T14:06:49.436Z,1.40
2022-08-02T14:09:38.327Z,1.20
2022-08-02T14:12:26.513Z,0.90
2022-08-02T14:15:12.449Z,1.00
2022-08-02T14:17:58.425Z,1.17
2022-08-02T14:20:45.652Z,1.30
2022-08-02T14:23:50.121Z,1.10
2022-08-02T14:26:36.748Z,1.10
2022-08-02T14:29:23.074Z,1.42
2022-08-02T14:32:08.979Z,1.10
2022-08-02T14:34:56.348Z,1.30
2022-08-02T14:37:42.963Z,1.10
2022-08-02T14:40:31.644Z,1.30
2022-08-02T14:43:37.471Z,1.10
2022-08-02T14:46:24.397Z,1.40
2022-08-02T14:49:11.354Z,1.38
2022-08-02T14:52:01.693Z,1.13
2022-08-02T14:54:48.531Z,1.23
2022-08-02T14:57:35.310Z,1.27
2022-08-02T15:00:22.264Z,1.10
2022-08-02T15:03:10.059Z,1.35
2022-08-02T15:05:56.871Z,0.95
2022-08-02T15:08:43.289Z,1.15
2022-08-02T15:11:30.190Z,1.00
2022-08-02T15:14:35.692Z,1.20
2022-08-02T15:17:22.064Z,1.20
2022-08-02T15:20:24.435Z,1.00
2022-08-02T15:23:13.803Z,1.00
2022-08-02T15:25:59.885Z,0.98
2022-08-02T15:28:46.066Z,1.17
2022-08-02T15:31:33.510Z,1.40
2022-08-02T15:34:19.735Z,1.13
2022-08-02T15:37:05.665Z,1.20
2022-08-02T15:39:51.622Z,1.73
2022-08-02T15:42:37.568Z,1.10
2022-08-02T15:45:25.511Z,1.17
2022-08-02T15:48:12.402Z,1.08
2022-08-02T15:50:58.666Z,1.10
2022-08-02T15:53:44.699Z,1.13
2022-08-02T15:56:35.505Z,1.30
2022-08-02T15:59:21.446Z,1.30
2022-08-02T16:02:08.045Z,1.40
2022-08-02T16:04:54.140Z,1.02
2022-08-02T16:07:41.266Z,1.30
2022-08-02T16:10:27.683Z,1.30
2022-08-02T16:13:32.396Z,1.20
2022-08-02T16:16:18.554Z,1.17
2022-08-02T16:19:38.764Z,1.17
2022-08-02T16:22:12.493Z,1.50
2022-08-02T16:24:58.857Z,1.40
2022-08-02T16:28:06.058Z,1.38
2022-08-02T16:31:09.901Z,1.08
2022-08-02T16:33:57.410Z,1.13
2022-08-02T16:36:44.573Z,1.67
2022-08-02T16:39:30.642Z,1.33
2022-08-02T16:42:16.783Z,1.45
2022-08-02T16:45:11.221Z,1.40
2022-08-02T16:48:03.820Z,1.40
2022-08-02T16:50:51.689Z,1.30
2022-08-02T16:53:38.756Z,1.50
2022-08-02T16:56:43.669Z,1.83
2022-08-02T16:59:42.028Z,2.03
2022-08-02T17:02:29.588Z,1.60
2022-08-02T17:05:15.581Z,1.70
2022-08-02T17:08:15.613Z,1.80
2022-08-02T17:11:03.739Z,2.00
2022-08-02T17:13:50.240Z,2.00
2022-08-02T17:16:36.297Z,2.33
2022-08-02T17:19:22.405Z,2.50
2022-08-02T17:22:10.269Z,2.10
2022-08-02T17:24:59.339Z,2.08
2022-08-02T17:27:46.187Z,1.80
2022-08-02T17:30:32.118Z,1.70
2022-08-02T17:33:18.544Z,1.80
2022-08-02T17:36:05.057Z,1.60
2022-08-02T17:38:51.937Z,1.70
2022-08-02T17:41:49.275Z,1.80
2022-08-02T17:44:38.258Z,1.92
2022-08-02T17:47:30.695Z,1.50
2022-08-02T17:50:17.459Z,1.45
2022-08-02T17:53:06.428Z,1.60
2022-08-02T17:55:52.529Z,1.60
2022-08-02T17:58:38.312Z,1.73
2022-08-02T18:04:44.311Z,1.92
2022-08-02T18:07:49.080Z,1.60
2022-08-02T18:10:39.385Z,1.55
2022-08-02T18:13:25.356Z,1.77
2022-08-02T18:16:21.360Z,1.58
2022-08-02T18:19:16.608Z,1.50
2022-08-02T18:22:03.734Z,1.67
2022-08-02T18:24:49.401Z,2.17
2022-08-02T18:27:35.833Z,1.65
2022-08-02T18:30:28.204Z,1.70
2022-08-02T18:33:56.861Z,1.63
2022-08-02T18:36:25.113Z,1.80
2022-08-02T18:39:11.625Z,1.70
2022-08-02T18:41:58.038Z,1.83
2022-08-02T18:44:45.059Z,1.88
2022-08-02T18:47:33.052Z,2.47
2022-08-02T18:50:20.039Z,2.20
2022-08-02T18:53:06.874Z,1.92
2022-08-02T18:55:59.128Z,2.03
2022-08-02T18:58:49.270Z,2.22
2022-08-02T19:01:45.028Z,2.08
2022-08-02T19:04:34.769Z,1.83
2022-08-02T19:10:27.314Z,2.55
2022-08-02T19:13:17.342Z,4.70
2022-08-02T19:16:03.754Z,4.32
2022-08-02T19:18:51.243Z,4.85
2022-08-02T19:22:17.847Z,6.93
2022-08-02T19:24:43.311Z,6.20
2022-08-02T19:27:32.625Z,7.47
2022-08-02T19:30:21.326Z,8.70
2022-08-02T19:33:11.879Z,7.45
2022-08-02T19:36:11.769Z,13.65
2022-08-02T19:38:59.392Z,15.68
2022-08-02T19:41:46.990Z,15.95
2022-08-02T19:44:33.086Z,14.82
2022-08-02T19:47:19.660Z,14.82
2022-08-02T19:50:06.787Z,15.52
2022-08-02T19:52:55.679Z,10.52
2022-08-02T19:55:59.563Z,7.80
2022-08-02T19:58:48.034Z,4.55
2022-08-02T20:01:38.802Z,6.03
2022-08-02T20:04:27.441Z,4.07
2022-08-02T20:07:13.583Z,4.18
2022-08-02T20:10:12.104Z,3.75
2022-08-02T20:12:57.957Z,3.20
2022-08-02T20:15:56.030Z,2.58
2022-08-02T20:18:43.093Z,3.78
2022-08-02T20:21:36.060Z,5.53
2022-08-02T20:24:26.561Z,7.68
2022-08-02T20:27:16.905Z,8.10
2022-08-02T20:30:08.171Z,6.25
2022-08-02T20:33:02.549Z,4.00
2022-08-02T20:36:04.770Z,3.78
2022-08-02T20:38:51.445Z,3.50
2022-08-02T20:41:45.766Z,3.03
2022-08-02T20:44:34.518Z,3.97
2022-08-02T20:47:38.849Z,3.60
2022-08-02T20:50:44.658Z,5.53
2022-08-02T20:53:31.317Z,5.75
2022-08-02T20:56:17.890Z,5.32
2022-08-02T20:59:15.624Z,3.42
2022-08-02T21:02:02.285Z,3.58
2022-08-02T21:04:48.603Z,3.85
2022-08-02T21:07:37.186Z,4.43
2022-08-02T21:10:24.192Z,3.53
2022-08-02T21:13:18.579Z,4.22
2022-08-02T21:16:08.908Z,3.70
2022-08-02T21:18:59.977Z,3.72
2022-08-02T21:21:46.619Z,3.22
2022-08-02T21:24:33.034Z,3.58
2022-08-02T21:27:53.198Z,3.13
2022-08-02T21:30:26.922Z,3.20
2022-08-02T21:33:22.421Z,2.75
2022-08-02T21:36:09.619Z,3.35
2022-08-02T21:38:57.981Z,3.13
2022-08-02T21:41:46.632Z,2.90
2022-08-02T21:44:32.977Z,2.80
2022-08-02T21:47:27.666Z,2.80
2022-08-02T21:50:16.297Z,2.85
2022-08-02T21:53:02.212Z,2.83
2022-08-02T21:56:00.167Z,3.35
2022-08-02T21:58:47.161Z,3.08
2022-08-02T22:01:35.131Z,2.85
2022-08-02T22:04:21.999Z,3.30
2022-08-02T22:07:08.220Z,2.97
2022-08-02T22:09:55.368Z,2.80
2022-08-02T22:12:41.564Z,2.88
2022-08-02T22:15:36.030Z,2.97
2022-08-02T22:18:29.442Z,2.95
2022-08-02T22:21:16.925Z,2.22
2022-08-02T22:24:05.438Z,2.88
2022-08-02T22:26:59.029Z,2.42
2022-08-02T22:29:44.812Z,2.70
2022-08-02T22:32:51.037Z,3.15
2022-08-02T22:35:37.473Z,2.97
2022-08-02T22:38:26.014Z,2.65
2022-08-02T22:41:15.749Z,2.90
2022-08-02T22:44:02.164Z,2.50
2022-08-02T22:46:50.298Z,3.03
2022-08-02T22:49:58.979Z,2.83
2022-08-02T22:52:46.839Z,2.80
2022-08-02T22:55:41.277Z,2.58
2022-08-02T22:58:27.843Z,2.63
2022-08-02T22:58:41.486Z,1.77
2022-08-02T22:58:58.415Z,2.10
2022-08-02T23:01:14.485Z,2.95
2022-08-02T23:04:00.493Z,2.80
2022-08-02T23:06:46.506Z,2.58
2022-08-02T23:09:32.412Z,2.42
2022-08-02T23:12:21.465Z,2.70
2022-08-02T23:15:08.468Z,2.60
2022-08-02T23:18:13.069Z,2.75
2022-08-02T23:20:59.909Z,3.00
2022-08-02T23:23:45.864Z,3.13
2022-08-02T23:26:31.696Z,2.90
2022-08-02T23:29:19.562Z,2.55
2022-08-02T23:32:05.515Z,2.85
2022-08-02T23:34:52.902Z,2.38
2022-08-02T23:38:00.110Z,2.55
2022-08-02T23:40:45.209Z,2.55
2022-08-02T23:43:31.163Z,2.70
2022-08-02T23:46:17.146Z,2.70
2022-08-02T23:49:03.392Z,2.30
2022-08-02T23:51:50.661Z,2.67
2022-08-02T23:54:36.970Z,2.67
2022-08-02T23:57:23.279Z,2.40
